Terminal Aerodrome Forecast
Issued by NWS

Home | Current Version | Previous Version | Text Only | Print | Product List | Glossary On
Versions: 1 2 3 4 5 6 7 8 9 10 11 12
000
FTUS46 KOTX 241726
TAFMWH
TAF
KMWH 241726Z 2418/2518 24004KT P6SM FEW100
     FM242000 19007KT P6SM SCT080 OVC100
     FM250200 16005KT P6SM BKN150
     FM250900 01005KT P6SM SCT150 SCT200
     FM251400 VRB03KT P6SM BKN100 BKN200=

USA.gov is the U.S. government's official web portal to all federal, state and local government web resources and services.